sensor_id;sensor_type;location;lat;lon;timestamp;P1;durP1;ratioP1;P2;durP2;ratioP2
37087;SDS011;23002;52.676;6.432;2024-01-16T00:01:45;2.97;;;0.68;;
37087;SDS011;23002;52.676;6.432;2024-01-16T00:04:12;4.07;;;0.95;;
37087;SDS011;23002;52.676;6.432;2024-01-16T00:06:42;6.68;;;0.70;;
37087;SDS011;23002;52.676;6.432;2024-01-16T00:09:13;4.95;;;0.80;;
37087;SDS011;23002;52.676;6.432;2024-01-16T00:11:43;4.30;;;1.15;;
37087;SDS011;23002;52.676;6.432;2024-01-16T00:14:10;3.00;;;1.08;;
37087;SDS011;23002;52.676;6.432;2024-01-16T00:16:43;10.10;;;1.10;;
37087;SDS011;23002;52.676;6.432;2024-01-16T00:19:11;4.03;;;0.35;;
37087;SDS011;23002;52.676;6.432;2024-01-16T00:21:45;3.85;;;1.23;;
37087;SDS011;23002;52.676;6.432;2024-01-16T00:24:15;3.13;;;0.50;;
37087;SDS011;23002;52.676;6.432;2024-01-16T00:26:42;3.80;;;0.40;;
37087;SDS011;23002;52.676;6.432;2024-01-16T00:29:10;3.50;;;0.57;;
37087;SDS011;23002;52.676;6.432;2024-01-16T00:31:38;2.58;;;0.52;;
37087;SDS011;23002;52.676;6.432;2024-01-16T00:34:05;5.03;;;0.93;;
37087;SDS011;23002;52.676;6.432;2024-01-16T00:36:32;4.65;;;0.60;;
37087;SDS011;23002;52.676;6.432;2024-01-16T00:38:59;3.58;;;0.80;;
37087;SDS011;23002;52.676;6.432;2024-01-16T00:41:26;1.02;;;0.50;;
37087;SDS011;23002;52.676;6.432;2024-01-16T00:43:53;4.05;;;0.65;;
37087;SDS011;23002;52.676;6.432;2024-01-16T00:46:20;3.25;;;0.60;;
37087;SDS011;23002;52.676;6.432;2024-01-16T00:48:46;2.90;;;0.55;;
37087;SDS011;23002;52.676;6.432;2024-01-16T00:51:14;3.03;;;0.57;;
37087;SDS011;23002;52.676;6.432;2024-01-16T00:53:41;2.33;;;0.63;;
37087;SDS011;23002;52.676;6.432;2024-01-16T00:56:09;5.38;;;0.60;;
37087;SDS011;23002;52.676;6.432;2024-01-16T00:58:37;4.75;;;0.50;;
37087;SDS011;23002;52.676;6.432;2024-01-16T01:01:04;3.22;;;0.38;;
37087;SDS011;23002;52.676;6.432;2024-01-16T01:03:31;2.40;;;0.40;;
37087;SDS011;23002;52.676;6.432;2024-01-16T01:05:58;2.88;;;0.60;;
37087;SDS011;23002;52.676;6.432;2024-01-16T01:08:27;1.25;;;0.75;;
37087;SDS011;23002;52.676;6.432;2024-01-16T01:10:54;2.38;;;0.50;;
37087;SDS011;23002;52.676;6.432;2024-01-16T01:13:21;7.63;;;0.52;;
37087;SDS011;23002;52.676;6.432;2024-01-16T01:15:48;2.58;;;0.43;;
37087;SDS011;23002;52.676;6.432;2024-01-16T01:18:15;1.75;;;0.40;;
37087;SDS011;23002;52.676;6.432;2024-01-16T01:20:42;1.33;;;0.50;;
37087;SDS011;23002;52.676;6.432;2024-01-16T01:23:09;6.18;;;0.75;;
37087;SDS011;23002;52.676;6.432;2024-01-16T01:25:36;7.03;;;0.60;;
37087;SDS011;23002;52.676;6.432;2024-01-16T01:28:03;7.47;;;0.77;;
37087;SDS011;23002;52.676;6.432;2024-01-16T01:30:31;2.72;;;0.20;;
37087;SDS011;23002;52.676;6.432;2024-01-16T01:32:58;3.05;;;0.55;;
37087;SDS011;23002;52.676;6.432;2024-01-16T01:35:25;0.57;;;0.40;;
37087;SDS011;23002;52.676;6.432;2024-01-16T01:37:52;2.95;;;0.65;;
37087;SDS011;23002;52.676;6.432;2024-01-16T01:40:19;3.70;;;0.50;;
37087;SDS011;23002;52.676;6.432;2024-01-16T01:42:45;3.58;;;0.60;;
37087;SDS011;23002;52.676;6.432;2024-01-16T01:45:12;5.10;;;0.50;;
37087;SDS011;23002;52.676;6.432;2024-01-16T01:47:39;4.30;;;0.52;;
37087;SDS011;23002;52.676;6.432;2024-01-16T01:50:09;1.08;;;0.50;;
37087;SDS011;23002;52.676;6.432;2024-01-16T01:52:38;1.40;;;0.30;;
37087;SDS011;23002;52.676;6.432;2024-01-16T01:55:10;4.45;;;0.52;;
37087;SDS011;23002;52.676;6.432;2024-01-16T02:00:06;4.63;;;0.47;;
37087;SDS011;23002;52.676;6.432;2024-01-16T02:02:33;8.77;;;0.73;;
37087;SDS011;23002;52.676;6.432;2024-01-16T02:05:00;2.15;;;0.55;;
37087;SDS011;23002;52.676;6.432;2024-01-16T02:07:28;6.10;;;0.70;;
37087;SDS011;23002;52.676;6.432;2024-01-16T02:09:55;2.58;;;0.60;;
37087;SDS011;23002;52.676;6.432;2024-01-16T02:12:22;5.25;;;0.43;;
37087;SDS011;23002;52.676;6.432;2024-01-16T02:14:51;5.97;;;0.55;;
37087;SDS011;23002;52.676;6.432;2024-01-16T02:17:18;4.05;;;0.40;;
37087;SDS011;23002;52.676;6.432;2024-01-16T02:19:44;3.88;;;0.52;;
37087;SDS011;23002;52.676;6.432;2024-01-16T02:22:12;3.13;;;1.00;;
37087;SDS011;23002;52.676;6.432;2024-01-16T02:24:45;2.05;;;0.77;;
37087;SDS011;23002;52.676;6.432;2024-01-16T02:27:12;2.28;;;0.47;;
37087;SDS011;23002;52.676;6.432;2024-01-16T02:29:42;3.20;;;0.55;;
37087;SDS011;23002;52.676;6.432;2024-01-16T02:32:11;6.90;;;0.57;;
37087;SDS011;23002;52.676;6.432;2024-01-16T02:34:39;7.47;;;0.80;;
37087;SDS011;23002;52.676;6.432;2024-01-16T02:37:07;1.70;;;0.60;;
37087;SDS011;23002;52.676;6.432;2024-01-16T02:39:33;3.78;;;0.40;;
37087;SDS011;23002;52.676;6.432;2024-01-16T02:42:00;4.70;;;0.95;;
37087;SDS011;23002;52.676;6.432;2024-01-16T02:44:27;4.78;;;0.60;;
37087;SDS011;23002;52.676;6.432;2024-01-16T02:46:54;23.77;;;1.67;;
37087;SDS011;23002;52.676;6.432;2024-01-16T02:49:21;2.92;;;0.65;;
37087;SDS011;23002;52.676;6.432;2024-01-16T02:51:47;2.40;;;0.65;;
37087;SDS011;23002;52.676;6.432;2024-01-16T02:54:15;4.95;;;0.65;;
37087;SDS011;23002;52.676;6.432;2024-01-16T02:56:42;6.82;;;0.93;;
37087;SDS011;23002;52.676;6.432;2024-01-16T02:59:09;4.25;;;0.50;;
37087;SDS011;23002;52.676;6.432;2024-01-16T03:01:36;5.63;;;0.98;;
37087;SDS011;23002;52.676;6.432;2024-01-16T03:04:02;6.22;;;0.93;;
37087;SDS011;23002;52.676;6.432;2024-01-16T03:06:30;1.00;;;0.52;;
37087;SDS011;23002;52.676;6.432;2024-01-16T03:08:57;1.85;;;0.50;;
37087;SDS011;23002;52.676;6.432;2024-01-16T03:11:24;5.03;;;0.57;;
37087;SDS011;23002;52.676;6.432;2024-01-16T03:13:50;5.22;;;0.85;;
37087;SDS011;23002;52.676;6.432;2024-01-16T03:16:19;3.85;;;0.70;;
37087;SDS011;23002;52.676;6.432;2024-01-16T03:18:46;4.03;;;0.45;;
37087;SDS011;23002;52.676;6.432;2024-01-16T03:21:13;5.55;;;0.90;;
37087;SDS011;23002;52.676;6.432;2024-01-16T03:23:40;0.98;;;0.43;;
37087;SDS011;23002;52.676;6.432;2024-01-16T03:26:11;4.05;;;0.75;;
37087;SDS011;23002;52.676;6.432;2024-01-16T03:28:41;7.57;;;1.00;;
37087;SDS011;23002;52.676;6.432;2024-01-16T03:31:09;4.93;;;0.70;;
37087;SDS011;23002;52.676;6.432;2024-01-16T03:33:35;3.08;;;0.60;;
37087;SDS011;23002;52.676;6.432;2024-01-16T03:36:08;2.63;;;0.68;;
37087;SDS011;23002;52.676;6.432;2024-01-16T03:38:36;4.00;;;0.40;;
37087;SDS011;23002;52.676;6.432;2024-01-16T03:41:03;0.75;;;0.35;;
37087;SDS011;23002;52.676;6.432;2024-01-16T03:43:30;3.83;;;0.70;;
37087;SDS011;23002;52.676;6.432;2024-01-16T03:45:57;6.90;;;1.02;;
37087;SDS011;23002;52.676;6.432;2024-01-16T03:48:24;7.40;;;1.23;;
37087;SDS011;23002;52.676;6.432;2024-01-16T03:50:51;8.77;;;0.68;;
37087;SDS011;23002;52.676;6.432;2024-01-16T03:53:18;1.98;;;0.80;;
37087;SDS011;23002;52.676;6.432;2024-01-16T03:55:44;2.03;;;0.60;;
37087;SDS011;23002;52.676;6.432;2024-01-16T03:58:11;2.35;;;0.63;;
37087;SDS011;23002;52.676;6.432;2024-01-16T04:00:39;2.80;;;0.57;;
37087;SDS011;23002;52.676;6.432;2024-01-16T04:03:06;1.45;;;0.50;;
37087;SDS011;23002;52.676;6.432;2024-01-16T04:05:33;1.63;;;0.60;;
37087;SDS011;23002;52.676;6.432;2024-01-16T04:08:00;3.33;;;0.70;;
37087;SDS011;23002;52.676;6.432;2024-01-16T04:10:27;3.65;;;0.52;;
37087;SDS011;23002;52.676;6.432;2024-01-16T04:12:54;2.28;;;0.90;;
37087;SDS011;23002;52.676;6.432;2024-01-16T04:15:22;10.02;;;1.10;;
37087;SDS011;23002;52.676;6.432;2024-01-16T04:17:49;10.27;;;0.90;;
37087;SDS011;23002;52.676;6.432;2024-01-16T04:20:16;6.80;;;0.90;;
37087;SDS011;23002;52.676;6.432;2024-01-16T04:22:43;2.70;;;0.68;;
37087;SDS011;23002;52.676;6.432;2024-01-16T04:25:09;4.72;;;0.70;;
37087;SDS011;23002;52.676;6.432;2024-01-16T04:27:36;5.10;;;0.73;;
37087;SDS011;23002;52.676;6.432;2024-01-16T04:30:03;3.67;;;0.70;;
37087;SDS011;23002;52.676;6.432;2024-01-16T04:32:30;5.03;;;0.75;;
37087;SDS011;23002;52.676;6.432;2024-01-16T04:34:57;1.30;;;0.73;;
37087;SDS011;23002;52.676;6.432;2024-01-16T04:37:24;2.95;;;1.02;;
37087;SDS011;23002;52.676;6.432;2024-01-16T04:39:51;8.98;;;0.80;;
37087;SDS011;23002;52.676;6.432;2024-01-16T04:42:18;1.80;;;0.52;;
37087;SDS011;23002;52.676;6.432;2024-01-16T04:44:44;2.78;;;0.52;;
37087;SDS011;23002;52.676;6.432;2024-01-16T04:47:11;2.92;;;0.68;;
37087;SDS011;23002;52.676;6.432;2024-01-16T04:49:39;1.55;;;0.50;;
37087;SDS011;23002;52.676;6.432;2024-01-16T04:52:08;2.47;;;0.63;;
37087;SDS011;23002;52.676;6.432;2024-01-16T04:54:34;1.75;;;0.75;;
37087;SDS011;23002;52.676;6.432;2024-01-16T04:57:01;9.65;;;1.08;;
37087;SDS011;23002;52.676;6.432;2024-01-16T04:59:28;6.20;;;0.80;;
37087;SDS011;23002;52.676;6.432;2024-01-16T05:01:57;2.22;;;0.88;;
37087;SDS011;23002;52.676;6.432;2024-01-16T05:04:24;3.58;;;0.95;;
37087;SDS011;23002;52.676;6.432;2024-01-16T05:06:51;2.42;;;0.57;;
37087;SDS011;23002;52.676;6.432;2024-01-16T05:09:18;2.17;;;0.60;;
37087;SDS011;23002;52.676;6.432;2024-01-16T05:11:48;5.60;;;0.73;;
37087;SDS011;23002;52.676;6.432;2024-01-16T05:14:15;5.60;;;0.70;;
37087;SDS011;23002;52.676;6.432;2024-01-16T05:16:42;2.67;;;0.70;;
37087;SDS011;23002;52.676;6.432;2024-01-16T05:19:09;7.25;;;0.90;;
37087;SDS011;23002;52.676;6.432;2024-01-16T05:21:35;4.47;;;0.73;;
37087;SDS011;23002;52.676;6.432;2024-01-16T05:24:02;4.70;;;1.20;;
37087;SDS011;23002;52.676;6.432;2024-01-16T05:26:29;1.95;;;1.25;;
37087;SDS011;23002;52.676;6.432;2024-01-16T05:28:56;7.97;;;1.15;;
37087;SDS011;23002;52.676;6.432;2024-01-16T05:31:22;3.25;;;0.63;;
37087;SDS011;23002;52.676;6.432;2024-01-16T05:33:49;1.70;;;0.60;;
37087;SDS011;23002;52.676;6.432;2024-01-16T05:36:16;3.15;;;0.65;;
37087;SDS011;23002;52.676;6.432;2024-01-16T05:38:43;7.10;;;0.90;;
37087;SDS011;23002;52.676;6.432;2024-01-16T05:41:10;3.05;;;0.88;;
37087;SDS011;23002;52.676;6.432;2024-01-16T05:43:37;2.95;;;0.90;;
37087;SDS011;23002;52.676;6.432;2024-01-16T05:46:03;6.15;;;1.23;;
37087;SDS011;23002;52.676;6.432;2024-01-16T05:48:30;2.97;;;1.13;;
37087;SDS011;23002;52.676;6.432;2024-01-16T05:50:57;7.65;;;1.00;;
37087;SDS011;23002;52.676;6.432;2024-01-16T05:53:24;5.75;;;0.70;;
37087;SDS011;23002;52.676;6.432;2024-01-16T05:55:50;5.55;;;1.58;;
37087;SDS011;23002;52.676;6.432;2024-01-16T05:58:17;4.55;;;1.33;;
37087;SDS011;23002;52.676;6.432;2024-01-16T06:00:44;3.10;;;1.27;;
37087;SDS011;23002;52.676;6.432;2024-01-16T06:03:11;3.75;;;0.90;;
37087;SDS011;23002;52.676;6.432;2024-01-16T06:05:38;7.80;;;1.17;;
37087;SDS011;23002;52.676;6.432;2024-01-16T06:08:05;4.88;;;1.50;;
37087;SDS011;23002;52.676;6.432;2024-01-16T06:10:32;6.18;;;1.55;;
37087;SDS011;23002;52.676;6.432;2024-01-16T06:12:59;3.17;;;1.25;;
37087;SDS011;23002;52.676;6.432;2024-01-16T06:15:26;2.17;;;1.02;;
37087;SDS011;23002;52.676;6.432;2024-01-16T06:17:52;2.58;;;1.15;;
37087;SDS011;23002;52.676;6.432;2024-01-16T06:20:19;4.00;;;1.52;;
37087;SDS011;23002;52.676;6.432;2024-01-16T06:22:46;7.90;;;1.58;;
37087;SDS011;23002;52.676;6.432;2024-01-16T06:25:13;2.80;;;1.30;;
37087;SDS011;23002;52.676;6.432;2024-01-16T06:27:40;6.38;;;1.70;;
37087;SDS011;23002;52.676;6.432;2024-01-16T06:30:07;5.45;;;1.52;;
37087;SDS011;23002;52.676;6.432;2024-01-16T06:32:36;3.75;;;1.30;;
37087;SDS011;23002;52.676;6.432;2024-01-16T06:35:03;2.83;;;1.25;;
37087;SDS011;23002;52.676;6.432;2024-01-16T06:37:30;3.53;;;1.40;;
37087;SDS011;23002;52.676;6.432;2024-01-16T06:39:57;4.80;;;2.10;;
37087;SDS011;23002;52.676;6.432;2024-01-16T06:42:24;5.72;;;1.48;;
37087;SDS011;23002;52.676;6.432;2024-01-16T06:44:51;4.15;;;1.42;;
37087;SDS011;23002;52.676;6.432;2024-01-16T06:47:19;5.35;;;1.77;;
37087;SDS011;23002;52.676;6.432;2024-01-16T06:49:46;5.72;;;2.00;;
37087;SDS011;23002;52.676;6.432;2024-01-16T06:52:13;4.40;;;2.08;;
37087;SDS011;23002;52.676;6.432;2024-01-16T06:54:40;7.13;;;1.75;;
37087;SDS011;23002;52.676;6.432;2024-01-16T06:57:07;5.28;;;1.55;;
37087;SDS011;23002;52.676;6.432;2024-01-16T06:59:34;3.63;;;1.55;;
37087;SDS011;23002;52.676;6.432;2024-01-16T07:02:00;5.45;;;1.33;;
37087;SDS011;23002;52.676;6.432;2024-01-16T07:04:27;10.45;;;1.80;;
37087;SDS011;23002;52.676;6.432;2024-01-16T07:06:54;10.80;;;2.78;;
37087;SDS011;23002;52.676;6.432;2024-01-16T07:09:21;5.75;;;2.15;;
37087;SDS011;23002;52.676;6.432;2024-01-16T07:11:48;7.90;;;2.10;;
37087;SDS011;23002;52.676;6.432;2024-01-16T07:14:15;6.45;;;2.30;;
37087;SDS011;23002;52.676;6.432;2024-01-16T07:16:41;9.15;;;2.40;;
37087;SDS011;23002;52.676;6.432;2024-01-16T07:19:09;10.98;;;2.67;;
37087;SDS011;23002;52.676;6.432;2024-01-16T07:21:36;5.53;;;2.78;;
37087;SDS011;23002;52.676;6.432;2024-01-16T07:24:03;9.18;;;2.20;;
37087;SDS011;23002;52.676;6.432;2024-01-16T07:26:30;6.75;;;3.10;;
37087;SDS011;23002;52.676;6.432;2024-01-16T07:28:57;8.48;;;2.70;;
37087;SDS011;23002;52.676;6.432;2024-01-16T07:31:25;9.60;;;2.58;;
37087;SDS011;23002;52.676;6.432;2024-01-16T07:33:52;5.60;;;2.50;;
37087;SDS011;23002;52.676;6.432;2024-01-16T07:36:19;5.80;;;2.63;;
37087;SDS011;23002;52.676;6.432;2024-01-16T07:38:46;7.43;;;2.75;;
37087;SDS011;23002;52.676;6.432;2024-01-16T07:41:12;12.05;;;2.97;;
37087;SDS011;23002;52.676;6.432;2024-01-16T07:43:39;10.00;;;2.80;;
37087;SDS011;23002;52.676;6.432;2024-01-16T07:46:06;9.75;;;2.42;;
37087;SDS011;23002;52.676;6.432;2024-01-16T07:48:33;7.75;;;2.60;;
37087;SDS011;23002;52.676;6.432;2024-01-16T07:51:00;15.27;;;3.92;;
37087;SDS011;23002;52.676;6.432;2024-01-16T07:53:27;5.10;;;2.63;;
37087;SDS011;23002;52.676;6.432;2024-01-16T07:55:54;6.95;;;2.50;;
37087;SDS011;23002;52.676;6.432;2024-01-16T07:58:21;8.57;;;3.08;;
37087;SDS011;23002;52.676;6.432;2024-01-16T08:00:48;7.75;;;2.65;;
37087;SDS011;23002;52.676;6.432;2024-01-16T08:03:15;5.25;;;2.50;;
37087;SDS011;23002;52.676;6.432;2024-01-16T08:05:42;8.52;;;3.05;;
37087;SDS011;23002;52.676;6.432;2024-01-16T08:08:09;7.07;;;2.50;;
37087;SDS011;23002;52.676;6.432;2024-01-16T08:10:36;6.35;;;2.35;;
37087;SDS011;23002;52.676;6.432;2024-01-16T08:13:03;9.05;;;3.20;;
37087;SDS011;23002;52.676;6.432;2024-01-16T08:15:29;13.13;;;3.17;;
37087;SDS011;23002;52.676;6.432;2024-01-16T08:17:56;10.45;;;3.22;;
37087;SDS011;23002;52.676;6.432;2024-01-16T08:20:23;7.78;;;3.55;;
37087;SDS011;23002;52.676;6.432;2024-01-16T08:22:50;8.13;;;3.60;;
37087;SDS011;23002;52.676;6.432;2024-01-16T08:25:17;7.97;;;3.50;;
37087;SDS011;23002;52.676;6.432;2024-01-16T08:27:43;10.95;;;3.20;;
37087;SDS011;23002;52.676;6.432;2024-01-16T08:30:10;11.93;;;3.30;;
37087;SDS011;23002;52.676;6.432;2024-01-16T08:32:38;9.27;;;3.00;;
37087;SDS011;23002;52.676;6.432;2024-01-16T08:35:08;9.48;;;2.65;;
37087;SDS011;23002;52.676;6.432;2024-01-16T08:37:35;8.07;;;3.13;;
37087;SDS011;23002;52.676;6.432;2024-01-16T08:40:02;7.43;;;3.30;;
37087;SDS011;23002;52.676;6.432;2024-01-16T08:42:31;9.85;;;4.05;;
37087;SDS011;23002;52.676;6.432;2024-01-16T08:44:57;8.15;;;3.65;;
37087;SDS011;23002;52.676;6.432;2024-01-16T08:47:25;10.35;;;4.00;;
37087;SDS011;23002;52.676;6.432;2024-01-16T08:49:52;12.30;;;3.90;;
37087;SDS011;23002;52.676;6.432;2024-01-16T08:52:18;7.97;;;3.20;;
37087;SDS011;23002;52.676;6.432;2024-01-16T08:54:45;8.93;;;4.03;;
37087;SDS011;23002;52.676;6.432;2024-01-16T08:57:12;11.75;;;4.70;;
37087;SDS011;23002;52.676;6.432;2024-01-16T08:59:43;8.88;;;3.63;;
37087;SDS011;23002;52.676;6.432;2024-01-16T09:02:10;9.45;;;3.83;;
37087;SDS011;23002;52.676;6.432;2024-01-16T09:04:37;7.38;;;3.53;;
37087;SDS011;23002;52.676;6.432;2024-01-16T09:07:04;7.28;;;3.45;;
37087;SDS011;23002;52.676;6.432;2024-01-16T09:09:32;7.30;;;3.58;;
37087;SDS011;23002;52.676;6.432;2024-01-16T09:11:59;6.50;;;3.15;;
37087;SDS011;23002;52.676;6.432;2024-01-16T09:14:25;9.23;;;3.00;;
37087;SDS011;23002;52.676;6.432;2024-01-16T09:16:52;9.07;;;3.90;;
37087;SDS011;23002;52.676;6.432;2024-01-16T09:19:20;6.40;;;3.85;;
37087;SDS011;23002;52.676;6.432;2024-01-16T09:21:47;9.25;;;3.53;;
37087;SDS011;23002;52.676;6.432;2024-01-16T09:24:15;6.88;;;3.58;;
37087;SDS011;23002;52.676;6.432;2024-01-16T09:26:42;7.97;;;3.55;;
37087;SDS011;23002;52.676;6.432;2024-01-16T09:29:09;11.75;;;2.95;;
37087;SDS011;23002;52.676;6.432;2024-01-16T09:31:36;8.52;;;4.43;;
37087;SDS011;23002;52.676;6.432;2024-01-16T09:34:04;7.22;;;3.05;;
37087;SDS011;23002;52.676;6.432;2024-01-16T09:36:35;11.20;;;3.78;;
37087;SDS011;23002;52.676;6.432;2024-01-16T09:39:06;6.35;;;3.00;;
37087;SDS011;23002;52.676;6.432;2024-01-16T09:41:44;5.55;;;3.00;;
37087;SDS011;23002;52.676;6.432;2024-01-16T09:44:13;4.80;;;2.40;;
37087;SDS011;23002;52.676;6.432;2024-01-16T09:46:40;6.40;;;2.85;;
37087;SDS011;23002;52.676;6.432;2024-01-16T09:49:13;9.85;;;3.65;;
37087;SDS011;23002;52.676;6.432;2024-01-16T09:51:42;8.93;;;2.67;;
37087;SDS011;23002;52.676;6.432;2024-01-16T09:54:09;6.18;;;2.80;;
37087;SDS011;23002;52.676;6.432;2024-01-16T09:56:39;6.45;;;2.40;;
37087;SDS011;23002;52.676;6.432;2024-01-16T09:59:09;7.25;;;2.67;;
37087;SDS011;23002;52.676;6.432;2024-01-16T10:01:48;7.43;;;2.47;;
37087;SDS011;23002;52.676;6.432;2024-01-16T10:04:21;6.05;;;2.13;;
37087;SDS011;23002;52.676;6.432;2024-01-16T10:06:49;4.72;;;2.15;;
37087;SDS011;23002;52.676;6.432;2024-01-16T10:09:18;6.72;;;2.10;;
37087;SDS011;23002;52.676;6.432;2024-01-16T10:11:45;5.93;;;1.95;;
37087;SDS011;23002;52.676;6.432;2024-01-16T10:14:17;2.70;;;1.65;;
37087;SDS011;23002;52.676;6.432;2024-01-16T10:17:00;3.65;;;2.13;;
37087;SDS011;23002;52.676;6.432;2024-01-16T10:19:33;3.58;;;1.75;;
37087;SDS011;23002;52.676;6.432;2024-01-16T10:22:14;6.03;;;1.50;;
37087;SDS011;23002;52.676;6.432;2024-01-16T10:25:05;3.78;;;1.60;;
37087;SDS011;23002;52.676;6.432;2024-01-16T10:27:39;3.00;;;1.35;;
37087;SDS011;23002;52.676;6.432;2024-01-16T10:32:35;3.80;;;1.67;;
37087;SDS011;23002;52.676;6.432;2024-01-16T10:35:05;2.20;;;1.30;;
37087;SDS011;23002;52.676;6.432;2024-01-16T10:37:52;8.98;;;1.60;;
37087;SDS011;23002;52.676;6.432;2024-01-16T10:40:21;6.55;;;1.95;;
37087;SDS011;23002;52.676;6.432;2024-01-16T10:42:57;7.50;;;1.75;;
37087;SDS011;23002;52.676;6.432;2024-01-16T10:45:28;3.28;;;1.58;;
37087;SDS011;23002;52.676;6.432;2024-01-16T10:48:06;3.92;;;1.77;;
37087;SDS011;23002;52.676;6.432;2024-01-16T10:50:36;2.65;;;1.52;;
37087;SDS011;23002;52.676;6.432;2024-01-16T10:53:08;2.92;;;1.45;;
37087;SDS011;23002;52.676;6.432;2024-01-16T10:58:16;5.95;;;2.00;;
37087;SDS011;23002;52.676;6.432;2024-01-16T11:00:54;6.40;;;1.67;;
37087;SDS011;23002;52.676;6.432;2024-01-16T11:03:25;5.43;;;1.90;;
37087;SDS011;23002;52.676;6.432;2024-01-16T11:06:01;7.53;;;1.60;;
37087;SDS011;23002;52.676;6.432;2024-01-16T11:08:32;5.73;;;1.90;;
37087;SDS011;23002;52.676;6.432;2024-01-16T11:11:03;4.80;;;1.88;;
37087;SDS011;23002;52.676;6.432;2024-01-16T11:13:32;5.50;;;2.10;;
37087;SDS011;23002;52.676;6.432;2024-01-16T11:16:04;5.10;;;2.13;;
37087;SDS011;23002;52.676;6.432;2024-01-16T11:18:45;3.78;;;1.80;;
37087;SDS011;23002;52.676;6.432;2024-01-16T11:21:13;2.58;;;2.30;;
37087;SDS011;23002;52.676;6.432;2024-01-16T11:26:29;9.32;;;2.60;;
37087;SDS011;23002;52.676;6.432;2024-01-16T11:29:01;5.25;;;2.22;;
37087;SDS011;23002;52.676;6.432;2024-01-16T11:31:48;6.68;;;2.55;;
37087;SDS011;23002;52.676;6.432;2024-01-16T11:34:15;6.05;;;2.70;;
37087;SDS011;23002;52.676;6.432;2024-01-16T11:37:11;6.82;;;3.03;;
37087;SDS011;23002;52.676;6.432;2024-01-16T11:39:39;6.25;;;3.35;;
37087;SDS011;23002;52.676;6.432;2024-01-16T11:42:09;9.23;;;4.28;;
37087;SDS011;23002;52.676;6.432;2024-01-16T11:44:45;9.55;;;3.53;;
37087;SDS011;23002;52.676;6.432;2024-01-16T11:47:18;6.45;;;3.00;;
37087;SDS011;23002;52.676;6.432;2024-01-16T11:49:50;8.20;;;3.55;;
37087;SDS011;23002;52.676;6.432;2024-01-16T11:52:40;5.03;;;2.90;;
37087;SDS011;23002;52.676;6.432;2024-01-16T11:55:30;11.38;;;3.65;;
37087;SDS011;23002;52.676;6.432;2024-01-16T12:00:44;7.95;;;3.92;;
37087;SDS011;23002;52.676;6.432;2024-01-16T12:03:18;9.10;;;3.85;;
37087;SDS011;23002;52.676;6.432;2024-01-16T12:06:00;8.10;;;4.10;;
37087;SDS011;23002;52.676;6.432;2024-01-16T12:08:33;7.95;;;3.20;;
37087;SDS011;23002;52.676;6.432;2024-01-16T12:11:05;6.95;;;3.45;;
37087;SDS011;23002;52.676;6.432;2024-01-16T12:13:32;10.90;;;4.30;;
37087;SDS011;23002;52.676;6.432;2024-01-16T12:16:03;8.60;;;3.70;;
37087;SDS011;23002;52.676;6.432;2024-01-16T12:18:31;7.72;;;3.97;;
37087;SDS011;23002;52.676;6.432;2024-01-16T12:21:13;6.43;;;3.25;;
37087;SDS011;23002;52.676;6.432;2024-01-16T12:23:42;9.10;;;3.67;;
37087;SDS011;23002;52.676;6.432;2024-01-16T12:26:24;10.27;;;3.85;;
37087;SDS011;23002;52.676;6.432;2024-01-16T12:28:52;9.18;;;3.33;;
37087;SDS011;23002;52.676;6.432;2024-01-16T12:31:25;8.88;;;3.58;;
37087;SDS011;23002;52.676;6.432;2024-01-16T12:33:54;10.50;;;3.35;;
37087;SDS011;23002;52.676;6.432;2024-01-16T12:36:31;7.57;;;3.88;;
37087;SDS011;23002;52.676;6.432;2024-01-16T12:38:58;11.80;;;3.95;;
37087;SDS011;23002;52.676;6.432;2024-01-16T12:41:30;9.38;;;2.90;;
37087;SDS011;23002;52.676;6.432;2024-01-16T12:44:08;6.15;;;2.70;;
37087;SDS011;23002;52.676;6.432;2024-01-16T12:46:43;7.05;;;3.38;;
37087;SDS011;23002;52.676;6.432;2024-01-16T12:49:14;12.15;;;3.55;;
37087;SDS011;23002;52.676;6.432;2024-01-16T12:51:42;7.97;;;4.03;;
37087;SDS011;23002;52.676;6.432;2024-01-16T12:54:12;8.73;;;2.92;;
37087;SDS011;23002;52.676;6.432;2024-01-16T12:57:02;7.80;;;3.10;;
37087;SDS011;23002;52.676;6.432;2024-01-16T12:59:29;7.43;;;2.90;;
37087;SDS011;23002;52.676;6.432;2024-01-16T13:02:02;8.35;;;3.38;;
37087;SDS011;23002;52.676;6.432;2024-01-16T13:04:29;7.53;;;3.28;;
37087;SDS011;23002;52.676;6.432;2024-01-16T13:07:01;7.88;;;2.45;;
37087;SDS011;23002;52.676;6.432;2024-01-16T13:09:35;5.07;;;2.58;;
37087;SDS011;23002;52.676;6.432;2024-01-16T13:12:05;7.70;;;2.95;;
37087;SDS011;23002;52.676;6.432;2024-01-16T13:14:32;4.65;;;2.50;;
37087;SDS011;23002;52.676;6.432;2024-01-16T13:17:03;4.63;;;2.45;;
37087;SDS011;23002;52.676;6.432;2024-01-16T13:19:33;4.75;;;2.13;;
37087;SDS011;23002;52.676;6.432;2024-01-16T13:22:00;6.82;;;1.83;;
37087;SDS011;23002;52.676;6.432;2024-01-16T13:24:27;8.73;;;2.08;;
37087;SDS011;23002;52.676;6.432;2024-01-16T13:26:57;8.57;;;2.17;;
37087;SDS011;23002;52.676;6.432;2024-01-16T13:29:33;3.28;;;1.77;;
37087;SDS011;23002;52.676;6.432;2024-01-16T13:34:32;4.85;;;1.40;;
37087;SDS011;23002;52.676;6.432;2024-01-16T13:37:00;3.53;;;1.60;;
37087;SDS011;23002;52.676;6.432;2024-01-16T13:39:32;4.93;;;1.48;;
37087;SDS011;23002;52.676;6.432;2024-01-16T13:42:05;3.63;;;1.50;;
37087;SDS011;23002;52.676;6.432;2024-01-16T13:44:33;8.07;;;2.25;;
37087;SDS011;23002;52.676;6.432;2024-01-16T13:47:04;6.20;;;1.40;;
37087;SDS011;23002;52.676;6.432;2024-01-16T13:49:38;2.15;;;1.10;;
37087;SDS011;23002;52.676;6.432;2024-01-16T13:52:07;5.03;;;1.67;;
37087;SDS011;23002;52.676;6.432;2024-01-16T13:54:35;4.80;;;1.30;;
37087;SDS011;23002;52.676;6.432;2024-01-16T13:57:05;6.25;;;1.50;;
37087;SDS011;23002;52.676;6.432;2024-01-16T13:59:36;5.70;;;1.40;;
37087;SDS011;23002;52.676;6.432;2024-01-16T14:02:05;2.50;;;0.85;;
37087;SDS011;23002;52.676;6.432;2024-01-16T14:04:35;5.45;;;1.33;;
37087;SDS011;23002;52.676;6.432;2024-01-16T14:07:02;4.40;;;0.90;;
37087;SDS011;23002;52.676;6.432;2024-01-16T14:09:33;4.85;;;1.20;;
37087;SDS011;23002;52.676;6.432;2024-01-16T14:12:12;1.73;;;0.90;;
37087;SDS011;23002;52.676;6.432;2024-01-16T14:14:41;4.03;;;1.10;;
37087;SDS011;23002;52.676;6.432;2024-01-16T14:17:09;5.22;;;1.00;;
37087;SDS011;23002;52.676;6.432;2024-01-16T14:19:37;4.55;;;1.17;;
37087;SDS011;23002;52.676;6.432;2024-01-16T14:22:05;1.85;;;0.90;;
37087;SDS011;23002;52.676;6.432;2024-01-16T14:24:32;8.95;;;1.13;;
37087;SDS011;23002;52.676;6.432;2024-01-16T14:27:00;1.70;;;0.90;;
37087;SDS011;23002;52.676;6.432;2024-01-16T14:29:30;6.90;;;1.90;;
37087;SDS011;23002;52.676;6.432;2024-01-16T14:32:06;2.75;;;1.63;;
37087;SDS011;23002;52.676;6.432;2024-01-16T14:34:33;4.03;;;1.13;;
37087;SDS011;23002;52.676;6.432;2024-01-16T14:37:00;4.30;;;1.25;;
37087;SDS011;23002;52.676;6.432;2024-01-16T14:39:30;4.93;;;1.45;;
37087;SDS011;23002;52.676;6.432;2024-01-16T14:41:57;3.33;;;1.30;;
37087;SDS011;23002;52.676;6.432;2024-01-16T14:44:26;5.18;;;1.83;;
37087;SDS011;23002;52.676;6.432;2024-01-16T14:46:55;3.63;;;1.00;;
37087;SDS011;23002;52.676;6.432;2024-01-16T14:49:24;8.32;;;1.70;;
37087;SDS011;23002;52.676;6.432;2024-01-16T14:51:58;5.45;;;1.45;;
37087;SDS011;23002;52.676;6.432;2024-01-16T14:54:27;13.20;;;1.90;;
37087;SDS011;23002;52.676;6.432;2024-01-16T14:56:56;4.40;;;1.40;;
37087;SDS011;23002;52.676;6.432;2024-01-16T14:59:26;4.55;;;1.30;;
37087;SDS011;23002;52.676;6.432;2024-01-16T15:01:54;2.42;;;1.23;;
37087;SDS011;23002;52.676;6.432;2024-01-16T15:04:23;4.90;;;1.40;;
37087;SDS011;23002;52.676;6.432;2024-01-16T15:06:50;2.47;;;1.10;;
37087;SDS011;23002;52.676;6.432;2024-01-16T15:09:19;4.65;;;1.30;;
37087;SDS011;23002;52.676;6.432;2024-01-16T15:11:46;3.53;;;1.20;;